ADDS METAR Data INFO
IDs: Format: Raw Decoded Include TAF

Data at: 1849 UTC 17 Oct 2017

K24A 171825Z AUTO 26003KT 10SM CLR 16/M01 A3031 RMK AO2 T01641006
K24A 171805Z AUTO 01003KT 10SM CLR 16/M01 A3032 RMK AO2 T01581008
K24A 171745Z AUTO 22004KT 10SM CLR 16/01 A3032 RMK AO2 T01560007 10159 20010
K24A 171725Z AUTO 00000KT 10SM CLR 14/02 A3033 RMK AO2 T01400019
K24A 171705Z AUTO 32004KT 10SM CLR 14/03 A3035 RMK AO2 T01390031
K24A 171645Z AUTO 03003KT 10SM CLR 13/04 A3036 RMK AO2 T01330037
K24A 171625Z AUTO 07003KT 10SM CLR 12/03 A3037 RMK AO2 T01200032
K24A 171605Z AUTO 03003KT 10SM CLR 11/03 A3037 RMK AO2 T01140034
K24A 171545Z AUTO 02003KT 10SM CLR 10/03 A3037 RMK AO2 T01040033
K24A 171525Z AUTO 00000KT 10SM CLR 09/04 A3037 RMK AO2 T00930044
K24A 171505Z AUTO 00000KT 10SM CLR 08/04 A3038 RMK AO2 T00820041
K24A 171445Z AUTO 00000KT 10SM CLR 07/04 A3038 RMK AO2 T00670039
K24A 171425Z AUTO 00000KT 10SM CLR 06/03 A3038 RMK AO2 T00560035
K24A 171405Z AUTO 00000KT 10SM CLR 04/03 A3038 RMK AO2 T00410027
K24A 171345Z AUTO 00000KT 10SM CLR 04/03 A3038 RMK AO2 T00420028
K24A 171325Z AUTO 00000KT 10SM CLR 03/02 A3038 RMK AO2 T00320023
K24A 171305Z AUTO 00000KT 10SM SCT002 02/02 A3038 RMK AO2 T00220018
K24A 171245Z AUTO 00000KT 10SM SCT001 02/02 A3037 RMK AO2 T00180016
K24A 171225Z AUTO 11004KT 1SM BR OVC001 01/01 A3036 RMK AO2 VIS 1/4V5 T00140013
K24A 171205Z AUTO 00000KT 1 1/4SM BR OVC001 01/01 A3036 RMK AO2 VIS 1/2V5 T00110010
K24A 171145Z AUTO 14005KT 3/4SM BR OVC001 01/01 A3035 RMK AO2 VIS 1/4V5 T00120011 10065 20012 70001
K24A 171125Z AUTO 00000KT 7SM CLR 02/02 A3035 RMK AO2 T00200015
K24A 171105Z AUTO 00000KT 10SM CLR 02/02 A3034 RMK AO2 T00250017
K24A 171045Z AUTO 00000KT 10SM SCT001 02/02 A3033 RMK AO2 T00210019
K24A 171025Z AUTO 00000KT 5SM BR SCT001 02/02 A3033 RMK AO2 LTG DSNT SE T00240020
K24A 171005Z AUTO 00000KT 10SM CLR 02/02 A3032 RMK AO2 T00240019
K24A 170945Z AUTO 00000KT 10SM CLR 03/02 A3032 RMK AO2 T00300020
K24A 170925Z AUTO 13005KT 10SM CLR 03/02 A3031 RMK AO2 LTG DSNT SE T00270021
K24A 170905Z AUTO 13005KT 10SM CLR 03/02 A3030 RMK AO2 T00290021
K24A 170845Z AUTO 10003KT 10SM CLR 03/02 A3030 RMK AO2 T00310022
K24A 170825Z AUTO 13007KT 10SM CLR 03/02 A3029 RMK AO2 T00330023
K24A 170805Z AUTO 13005KT 10SM CLR 03/02 A3028 RMK AO2 T00340024
K24A 170725Z AUTO 00000KT 10SM CLR 04/03 A3028 RMK AO2 T00430027
K24A 170705Z AUTO 17003KT 10SM CLR 05/03 A3028 RMK AO2 T00480025
K24A 170645Z AUTO 00000KT 10SM CLR 05/03 A3028 RMK AO2 T00500025
K24A 170625Z AUTO 00000KT 10SM CLR 05/03 A3028 RMK AO2 T00470027
K24A 170605Z AUTO 00000KT 10SM CLR 06/02 A3028 RMK AO2 T00590021
K24A 170545Z AUTO 28005KT 10SM CLR 06/02 A3029 RMK AO2 T00620023 10094 20058
K24A 170525Z AUTO 09003KT 10SM CLR 06/02 A3028 RMK AO2 T00600022
K24A 170505Z AUTO 04003KT 10SM CLR 06/02 A3028 RMK AO2 T00630023
K24A 170445Z AUTO 03007KT 350V080 10SM CLR 07/02 A3029 RMK AO2 T00680022
K24A 170425Z AUTO 03007KT 10SM CLR 07/02 A3029 RMK AO2 T00700025
K24A 170405Z AUTO 10003KT 10SM CLR 07/03 A3029 RMK AO2 T00690026
K24A 170345Z AUTO 04006KT 10SM CLR 08/02 A3030 RMK AO2 T00760023
K24A 170325Z AUTO 06003KT 10SM CLR 07/03 A3030 RMK AO2 T00740028
K24A 170305Z AUTO 04006KT 10SM CLR 08/03 A3029 RMK AO2 LTG DSNT SE T00800025
K24A 170245Z AUTO 04005KT 10SM CLR 08/03 A3029 RMK AO2 LTG DSNT SE T00780029
K24A 170225Z AUTO 04004KT 10SM CLR 08/03 A3028 RMK AO2 LTG DSNT SE T00800030
K24A 170205Z AUTO 05006KT 10SM CLR 08/03 A3027 RMK AO2 T00820030
K24A 170145Z AUTO 00000KT 10SM CLR 09/03 A3027 RMK AO2 T00870027
K24A 170125Z AUTO 00000KT 10SM CLR 09/03 A3026 RMK AO2 T00920028
K24A 170105Z AUTO 00000KT 10SM CLR 08/03 A3025 RMK AO2 LTG DSNT SE T00830031
K24A 170045Z AUTO 00000KT 10SM CLR 09/03 A3024 RMK AO2 T00900029
K24A 170025Z AUTO 00000KT 10SM CLR 09/03 A3024 RMK AO2 T00890030
K24A 170005Z AUTO 00000KT 10SM CLR 09/03 A3024 RMK AO2 T00890030
K24A 162345Z AUTO 01003KT 10SM CLR 09/03 A3023 RMK AO2 LTG DSNT SE T00880032 10170 20085 401740085
K24A 162325Z AUTO 03004KT 10SM CLR 09/03 A3022 RMK AO2 T00900034
K24A 162305Z AUTO 00000KT 10SM CLR 10/03 A3021 RMK AO2 T00950032
K24A 162245Z AUTO 00000KT 10SM CLR 10/04 A3020 RMK AO2 LTG DSNT SE T01000035
K24A 162225Z AUTO 34003KT 10SM CLR 11/04 A3019 RMK AO2 T01130037
K24A 162205Z AUTO 05003KT 10SM CLR 12/04 A3019 RMK AO2 T01160045
K24A 162145Z AUTO 02003KT 10SM CLR 13/05 A3019 RMK AO2 T01270049
K24A 162125Z AUTO 02005KT 10SM CLR 13/06 A3018 RMK AO2 T01290056
K24A 162105Z AUTO 03003KT 10SM CLR 14/05 A3018 RMK AO2 T01410052
K24A 162045Z AUTO 05003KT 10SM CLR 15/06 A3017 RMK AO2 LTG DSNT SE T01460058
K24A 162025Z AUTO 03005KT 10SM CLR 15/07 A3017 RMK AO2 LTG DSNT SE T01500072
K24A 162000Z AUTO 03003KT 10SM CLR 15/07 A3017 RMK AO2 LTG DSNT SE T01540072
K24A 161945Z AUTO 04004KT 10SM CLR 15/07 A3017 RMK AO2 LTG DSNT SE T01540072
K24A 161925Z AUTO 04004KT 10SM CLR 16/08 A3017 RMK AO2 T01580076
K24A 161905Z AUTO 03003KT 10SM CLR 16/09 A3017 RMK AO2 LTG DSNT SE T01600086
K24A 161845Z AUTO 05003KT 10SM CLR 16/09 A3017 RMK AO2 LTG DSNT SE T01640093
K24A 161825Z AUTO 03004KT 10SM SCT026 17/10 A3017 RMK AO2 T01680097
K24A 161805Z AUTO 03004KT 10SM SCT026 15/09 A3018 RMK AO2 LTG DSNT SE T01530092
K24A 161745Z AUTO 00000KT 10SM SCT022 16/09 A3018 RMK AO2 T01560090 10160 20105 60001
K24A 161725Z AUTO 32005KT 10SM SCT022 15/10 A3019 RMK AO2 T01530098
K24A 161705Z AUTO 00000KT 10SM SCT018 15/10 A3019 RMK AO2 LTG DSNT SE T01480098
K24A 161645Z AUTO 05003KT 10SM BKN016 15/11 A3019 RMK AO2 LTG DSNT SE T01470105
K24A 161625Z AUTO 36005KT 10SM BKN016 14/09 A3020 RMK AO2 LTG DSNT SE T01370095
K24A 161605Z AUTO 04003KT 10SM BKN014 13/10 A3020 RMK AO2 T01310095
K24A 161545Z AUTO 30007KT 10SM OVC014 12/09 A3020 RMK AO2 T01220088
K24A 161525Z AUTO 01003KT 10SM OVC014 12/09 A3019 RMK AO2 T01230094
K24A 161505Z AUTO 27004KT 10SM OVC014 12/09 A3019 RMK AO2 T01150090
K24A 161445Z AUTO 31006KT 10SM OVC014 11/09 A3018 RMK AO2 LTG DSNT SE T01140090 60001
K24A 161425Z AUTO 31005KT 10SM BKN014 11/09 A3018 RMK AO2 T01130091
K24A 161405Z AUTO 30007KT 270V340 10SM BKN014 11/09 A3018 RMK AO2 T01090091
K24A 161345Z AUTO 30009KT 10SM OVC014 11/09 A3017 RMK AO2 T01060089
K24A 161325Z AUTO 30009KT 10SM OVC014 11/09 A3017 RMK AO2 T01100092
K24A 161305Z AUTO 30009KT 10SM BKN014 11/09 A3016 RMK AO2 T01110093
K24A 161245Z AUTO 29009KT 10SM OVC014 11/09 A3014 RMK AO2 T01070087
K24A 161225Z AUTO 29005KT 10SM OVC014 11/09 A3013 RMK AO2 T01110094
K24A 161205Z AUTO 29008KT 260V330 10SM BKN014 OVC026 11/10 A3013 RMK AO2 LTG DSNT SE T01130103
K24A 161145Z AUTO 29009KT 10SM SCT024 12/10 A3012 RMK AO2 P0003 T01150102 10163 20115 60033 70041
K24A 161125Z AUTO 30011G15KT 10SM BKN022 12/11 A3012 RMK AO2 LTG DSNT SE P0002 T01180108
K24A 161105Z AUTO 31012G16KT 10SM BKN020 12/11 A3011 RMK AO2 P0001 T01210109
K24A 161045Z AUTO 31011G14KT 290V350 10SM SCT003 SCT015 BKN020 13/11 A3010 RMK AO2 LTG DSNT SE P0004 T01260114
K24A 161025Z AUTO 30006KT 10SM SCT003 BKN010 BKN015 13/13 A3010 RMK AO2 P0003 T01320126
K24A 161005Z AUTO 31009KT 5SM BR BKN003 OVC008 13/13 A3010 RMK AO2 LTG DSNT SE P0001 T01330130
K24A 160945Z AUTO 30007G15KT 250V320 3/4SM VCTSBR OVC003 14/13 A3010 RMK AO2 LTG DSNT SE P0005 T01370135
K24A 160925Z AUTO 30006KT 10SM -RA SCT005 BKN019 OVC100 14/13 A3010 RMK AO2 LTG DSNT SE P0003 T01400130
K24A 160905Z AUTO 28007KT 10SM RA OVC100 14/14 A3009 RMK AO2 LTG DSNT SE P0001 T01420136
K24A 160845Z AUTO 29007KT 10SM -RA SCT075 OVC100 15/14 A3010 RMK AO2 P0007 T01470141 60017
K24A 160825Z AUTO 25004KT 5SM -RA BR SCT048 SCT075 OVC100 15/14 A3010 RMK AO2 P0004 T01460143
K24A 160800Z AUTO 27004KT 10SM -RA SCT003 BKN048 OVC055 15/14 A3010 RMK AO2 LTG DSNT SE P0001 T01470142
K24A 160745Z AUTO 31006KT 7SM -RA SCT005 BKN037 OVC060 15/14 A3010 RMK AO2 P0007 T01460143
K24A 160725Z AUTO 32008G17KT 290V350 4SM +RA BR BKN005 BKN021 OVC040 15/14 A3011 RMK AO2 P0004 T01490144
K24A 160705Z AUTO 00000KT 5SM RA BR BKN005 BKN020 OVC032 16/16 A3010 RMK AO2 P0001 T01610160